Fort Good Hope, Canada
Current Conditions -  °F | °C
As of 10:00 AM on Friday 31 Oct 2014 (Local Time) from CYVQ Reporting Station
Light Snow Light Snow  
Wind Chill: -7°   Ceiling: 4000
Heat Index: 10°   Visibility: 4mi
Dew Point:   Wind: 16mph
Humidity: 85%   Direction: 280°W
Pressure: 29.4"   Gusts: 24mph
Location:  66.27°N, 128.63°W
Report Text: CYVQ 311600Z 28014G21KT 4SM -SN DRSN SCT015 OVC040 M12/M14 A2940 RMK SC3SC5 /S01/ SLP962
Loading
Personal Weather Stations






























Interactive Weather Map
Tropical Storm Tracking
New forecast layout! Learn more

10-Day Weather Forecast

Advertisements
Track Severe Weather on mobile